Time;durP1;ratioP1;P1;durP2;ratioP2;P2;SDS_P1;SDS_P2;PMS_P1;PMS_P2;Temp;Humidity;BMP_temperature;BMP_pressure;BME280_temperature;BME280_humidity;BME280_pressure;Samples;Min_cycle;Max_cycle;Signal;HPM_P1;HPM_P2
2023/08/03 00:13:32;228393.00;0.76;394.78;0.00;0.00;0.62;;;;;20.90;1.00;;;;;;2331757;40;3528;-88
2023/08/03 00:15:59;162353.00;0.54;281.09;0.00;0.00;0.62;;;;;20.60;1.20;;;;;;2273933;55;3756;-87
2023/08/03 00:20:56;266360.00;0.89;460.08;0.00;0.00;0.62;;;;;20.20;2.00;;;;;;2265879;61;1412;-86
2023/08/03 00:23:23;351084.00;1.17;605.72;82284.00;0.27;142.98;;;;;20.10;2.10;;;;;;2263991;61;1291;-84
2023/08/03 00:25:49;275611.00;0.92;475.99;38801.00;0.13;67.81;;;;;20.20;1.70;;;;;;2263911;61;1542;-86
2023/08/03 00:28:18;26554.00;0.09;46.62;0.00;0.00;0.62;;;;;20.20;1.00;;;;;;2264074;61;1920;-86
2023/08/03 00:30:46;54158.00;0.18;94.38;0.00;0.00;0.62;;;;;20.30;1.00;;;;;;2263805;61;1001;-88
2023/08/03 00:33:13;439952.00;1.47;758.50;68350.00;0.23;118.91;;;;;20.00;1.00;;;;;;2263840;61;1275;-87
2023/08/03 00:35:40;164188.00;0.55;284.25;0.00;0.00;0.62;;;;;20.10;1.00;;;;;;2263748;61;1714;-87
2023/08/03 00:38:07;261534.00;0.87;451.79;0.00;0.00;0.62;;;;;20.10;1.00;;;;;;2263890;61;916;-86
2023/08/03 00:43:04;658096.00;2.19;1134.65;0.00;0.00;0.62;;;;;20.10;1.00;;;;;;2265547;61;1371;-87
2023/08/03 00:45:31;57933.00;0.19;100.90;0.00;0.00;0.62;;;;;20.10;1.00;;;;;;2263826;61;1567;-88
2023/08/03 00:47:59;422326.00;1.41;728.19;80892.00;0.27;140.58;;;;;20.10;1.00;;;;;;2263857;61;2008;-87
2023/08/03 00:50:26;284710.00;0.95;491.64;0.00;0.00;0.62;;;;;20.20;1.00;;;;;;2263904;61;1502;-87
2023/08/03 00:55:21;321911.00;1.07;555.58;0.00;0.00;0.62;;;;;20.20;1.00;;;;;;2265398;61;1416;-87
2023/08/03 00:57:48;224006.00;0.75;387.24;0.00;0.00;0.62;;;;;20.20;1.00;;;;;;2263740;61;1427;-87
2023/08/03 01:07:40;1115296.00;3.72;1937.80;0.00;0.00;0.62;;;;;20.00;1.00;;;;;;2268953;61;1974;-85
2023/08/03 01:10:08;536044.00;1.79;923.91;65114.00;0.22;113.32;;;;;20.10;1.00;;;;;;2267857;61;925;-87
2023/08/03 01:12:35;302766.00;1.01;522.67;0.00;0.00;0.62;;;;;20.10;1.00;;;;;;2267652;61;1455;-87
2023/08/03 01:17:29;647323.00;2.16;1116.01;0.00;0.00;0.62;;;;;20.00;1.00;;;;;;2265139;61;1387;-86
2023/08/03 01:19:56;367532.00;1.23;633.99;21836.00;0.07;38.45;;;;;20.10;1.00;;;;;;2302869;40;3587;-86
2023/08/03 01:22:24;234799.00;0.78;405.80;66328.00;0.22;115.41;;;;;19.90;1.00;;;;;;2267671;61;1313;-88
2023/08/03 01:24:54;111295.00;0.37;193.06;0.00;0.00;0.62;;;;;20.20;1.00;;;;;;2267745;61;1557;-86
2023/08/03 01:27:21;222533.00;0.74;384.70;0.00;0.00;0.62;;;;;20.40;1.00;;;;;;2267801;61;1007;-87
2023/08/03 01:32:17;1205508.00;4.02;2100.18;0.00;0.00;0.62;;;;;20.40;1.00;;;;;;2265230;61;1377;-88
2023/08/03 01:34:44;263487.00;0.88;455.14;54709.00;0.18;95.33;;;;;20.20;1.00;;;;;;2263853;61;1529;-88
2023/08/03 01:37:11;56859.00;0.19;99.05;0.00;0.00;0.62;;;;;20.10;1.00;;;;;;2263837;61;930;-87
2023/08/03 01:39:38;623529.00;2.08;1074.86;251225.00;0.84;434.06;;;;;20.00;1.00;;;;;;2267657;55;3770;-88
2023/08/03 01:42:08;111082.00;0.37;192.70;0.00;0.00;0.62;;;;;19.90;1.00;;;;;;2277674;55;3757;-87
2023/08/03 01:44:35;76534.00;0.26;133.05;0.00;0.00;0.62;;;;;19.90;1.00;;;;;;2267810;61;1126;-87
2023/08/03 01:47:01;152086.00;0.51;263.40;31091.00;0.10;54.47;;;;;19.90;1.00;;;;;;2267842;61;1819;-87
2023/08/03 01:49:30;246988.00;0.82;426.77;23053.00;0.08;40.56;;;;;19.90;1.00;;;;;;2267826;61;1917;-87
2023/08/03 01:51:57;66829.00;0.22;116.28;0.00;0.00;0.62;;;;;20.10;1.00;;;;;;2267875;61;1048;-87
2023/08/03 01:54:24;245430.00;0.82;424.09;0.00;0.00;0.62;;;;;20.10;1.00;;;;;;2267830;61;1384;-87
2023/08/03 01:56:50;134619.00;0.45;233.29;0.00;0.00;0.62;;;;;20.10;1.00;;;;;;2267861;61;1013;-88
2023/08/03 01:59:19;83525.00;0.28;145.13;0.00;0.00;0.62;;;;;20.20;1.00;;;;;;2267838;61;1661;-89
2023/08/03 02:01:45;134581.00;0.45;233.23;52976.00;0.18;92.33;;;;;20.40;1.00;;;;;;2267835;61;1092;-86
2023/08/03 02:04:14;328706.00;1.10;567.26;27762.00;0.09;48.71;;;;;20.30;1.00;;;;;;2267646;61;1296;-87
2023/08/03 02:06:41;231279.00;0.77;399.75;49574.00;0.17;86.45;;;;;20.20;1.00;;;;;;2267625;61;1722;-87
2023/08/03 02:09:07;167777.00;0.56;290.44;0.00;0.00;0.62;;;;;20.10;1.00;;;;;;2267858;61;1998;-87
2023/08/03 02:11:35;193274.00;0.64;334.35;42463.00;0.14;74.15;;;;;20.10;1.00;;;;;;2267711;61;1045;-85
2023/08/03 02:14:02;343423.00;1.14;592.56;26777.00;0.09;47.00;;;;;20.40;1.00;;;;;;2267713;61;1726;-87
2023/08/03 02:16:31;180097.00;0.60;311.66;0.00;0.00;0.62;;;;;20.40;1.00;;;;;;2267820;61;1243;-86
2023/08/03 02:18:58;168286.00;0.56;291.31;0.00;0.00;0.62;;;;;20.20;1.00;;;;;;2267869;61;1086;-85
2023/08/03 02:21:25;154090.00;0.51;266.86;0.00;0.00;0.62;;;;;20.20;1.00;;;;;;2267830;61;1109;-86
2023/08/03 02:23:53;171266.00;0.57;296.45;0.00;0.00;0.62;;;;;20.30;1.00;;;;;;2267740;61;1499;-85
2023/08/03 02:26:20;56283.00;0.19;98.05;0.00;0.00;0.62;;;;;20.50;1.00;;;;;;2267768;61;1086;-86
2023/08/03 02:28:47;103209.00;0.34;179.11;0.00;0.00;0.62;;;;;20.60;1.00;;;;;;2267797;61;2001;-86
2023/08/03 02:31:13;65784.00;0.22;114.47;0.00;0.00;0.62;;;;;20.60;1.00;;;;;;2268358;61;1012;-86
2023/08/03 02:33:42;0.00;0.00;0.62;0.00;0.00;0.62;;;;;20.50;1.00;;;;;;2268247;61;1272;-85
2023/08/03 02:36:09;28077.00;0.09;49.25;0.00;0.00;0.62;;;;;20.60;1.00;;;;;;2268382;61;1121;-84
2023/08/03 02:38:36;236368.00;0.79;408.50;60440.00;0.20;105.24;;;;;20.60;1.00;;;;;;2268305;61;1524;-84
2023/08/03 02:41:03;322924.00;1.08;557.32;46628.00;0.16;81.35;;;;;20.60;1.00;;;;;;2268378;61;1402;-84
2023/08/03 02:43:32;220760.00;0.74;381.65;29343.00;0.10;51.45;;;;;20.50;1.00;;;;;;2268317;61;1415;-85
2023/08/03 02:45:58;137389.00;0.46;238.07;0.00;0.00;0.62;;;;;20.50;1.00;;;;;;2268381;61;2242;-85
2023/08/03 02:48:25;6015.00;0.02;11.04;0.00;0.00;0.62;;;;;20.30;1.00;;;;;;2268365;61;1998;-86
2023/08/03 02:50:53;207037.00;0.69;358.04;84588.00;0.28;146.96;;;;;20.30;1.00;;;;;;2268512;61;1007;-87
2023/08/03 02:53:20;0.00;0.00;0.62;0.00;0.00;0.62;;;;;20.30;1.00;;;;;;2268310;61;1276;-86
2023/08/03 02:55:47;97989.00;0.33;170.10;0.00;0.00;0.62;;;;;20.20;1.00;;;;;;2268340;61;1007;-85
2023/08/03 02:58:17;106468.00;0.35;184.74;0.00;0.00;0.62;;;;;20.20;1.00;;;;;;2268367;61;1026;-85
2023/08/03 03:00:44;277011.00;0.92;478.40;0.00;0.00;0.62;;;;;20.20;1.00;;;;;;2268392;61;1749;-87
2023/08/03 03:03:10;172303.00;0.57;298.23;0.00;0.00;0.62;;;;;20.20;1.00;;;;;;2287146;40;3615;-88
2023/08/03 03:05:39;149567.00;0.50;259.06;0.00;0.00;0.62;;;;;20.20;1.00;;;;;;2273304;61;993;-89
2023/08/03 03:08:07;264104.00;0.88;456.21;0.00;0.00;0.62;;;;;20.20;1.00;;;;;;2272596;61;2018;-88
2023/08/03 03:10:34;250283.00;0.83;432.44;701.00;0.00;1.84;;;;;20.20;1.00;;;;;;2272588;61;920;-87
2023/08/03 03:13:01;80447.00;0.27;139.81;0.00;0.00;0.62;;;;;20.10;1.00;;;;;;2272638;61;1355;-87
2023/08/03 03:15:28;52133.00;0.17;90.87;0.00;0.00;0.62;;;;;20.30;1.00;;;;;;2272678;61;1095;-88
2023/08/03 03:17:55;113744.00;0.38;197.29;0.00;0.00;0.62;;;;;20.10;1.00;;;;;;2272671;61;1040;-86
2023/08/03 03:20:21;164578.00;0.55;284.93;0.00;0.00;0.62;;;;;20.20;1.00;;;;;;2272718;61;1095;-86
2023/08/03 03:22:48;37048.00;0.12;64.78;0.00;0.00;0.62;;;;;20.20;1.00;;;;;;2272256;61;1456;-86
2023/08/03 03:25:17;318791.00;1.06;550.22;0.00;0.00;0.62;;;;;20.00;1.00;;;;;;2364431;40;3759;-87
2023/08/03 03:27:44;127673.00;0.43;221.32;0.00;0.00;0.62;;;;;19.80;1.00;;;;;;2268463;61;1010;-87
2023/08/03 03:30:11;134104.00;0.45;232.41;0.00;0.00;0.62;;;;;19.70;1.00;;;;;;2268487;61;1932;-87
2023/08/03 03:32:44;105710.00;0.35;183.43;0.00;0.00;0.62;;;;;19.80;1.00;;;;;;2268340;61;1438;-85
2023/08/03 03:35:11;347441.00;1.16;599.46;56503.00;0.19;98.43;;;;;19.80;1.00;;;;;;2268400;61;1154;-85
2023/08/03 03:37:38;372118.00;1.24;641.88;0.00;0.00;0.62;;;;;19.90;1.00;;;;;;2314501;40;3683;-85
2023/08/03 03:40:06;258370.00;0.86;446.35;0.00;0.00;0.62;;;;;20.00;1.00;;;;;;2272257;61;2504;-87
2023/08/03 03:42:35;173695.00;0.58;300.63;0.00;0.00;0.62;;;;;20.00;1.00;;;;;;2272396;61;1268;-86
2023/08/03 03:45:01;317152.00;1.06;547.40;60490.00;0.20;105.32;;;;;20.00;1.00;;;;;;2272388;61;1717;-86
2023/08/03 03:47:29;147670.00;0.49;255.79;0.00;0.00;0.62;;;;;20.10;1.00;;;;;;2272389;61;969;-87
2023/08/03 03:52:25;870679.00;2.90;1504.68;0.00;0.00;0.62;;;;;19.80;1.00;;;;;;2269456;61;1402;-86
2023/08/03 04:04:49;1780363.00;5.93;3182.66;0.00;0.00;0.62;;;;;19.20;1.00;;;;;;2375323;40;3620;-88
2023/08/03 04:17:20;1186391.00;3.95;2065.63;0.00;0.00;0.62;;;;;18.90;1.00;;;;;;1534474;55;3705;-87
2023/08/03 04:24:51;854948.00;2.85;1477.13;0.00;0.00;0.62;;;;;18.80;1.00;;;;;;2265783;61;1433;-89
2023/08/03 04:27:22;271177.00;0.90;468.37;74112.00;0.25;128.87;;;;;19.00;1.00;;;;;;2348026;55;3755;-89
2023/08/03 04:44:56;1106069.00;3.69;1921.28;0.00;0.00;0.62;;;;;18.60;1.00;;;;;;2354685;40;3632;-88
2023/08/03 04:59:50;1070030.00;3.57;1856.91;0.00;0.00;0.62;;;;;18.80;1.00;;;;;;2309591;40;3523;-87
2023/08/03 05:04:49;1260463.00;4.20;2199.93;0.00;0.00;0.62;;;;;19.00;1.00;;;;;;2283713;40;3497;-88
2023/08/03 05:07:16;223049.00;0.74;385.59;0.00;0.00;0.62;;;;;19.20;1.00;;;;;;2267851;61;1000;-86
2023/08/03 05:12:12;859791.00;2.87;1485.61;0.00;0.00;0.62;;;;;19.10;1.00;;;;;;2265751;61;1396;-85
2023/08/03 05:14:39;336318.00;1.12;580.35;34910.00;0.12;61.08;;;;;19.30;1.00;;;;;;2275234;55;3747;-87
2023/08/03 05:17:06;147582.00;0.49;255.64;0.00;0.00;0.62;;;;;19.40;1.00;;;;;;2268026;61;902;-86
2023/08/03 05:19:33;61585.00;0.21;107.22;0.00;0.00;0.62;;;;;19.40;1.00;;;;;;2267754;61;1609;-86
2023/08/03 05:22:01;288543.00;0.96;498.22;29926.00;0.10;52.46;;;;;19.40;1.00;;;;;;2267928;61;1505;-87
2023/08/03 05:31:54;1255988.00;4.19;2191.78;76564.00;0.26;133.10;;;;;19.40;1.00;;;;;;2265696;61;1437;-88
2023/08/03 05:36:52;1154718.00;3.85;2008.56;70181.00;0.23;122.07;;;;;19.80;1.00;;;;;;2265809;61;1417;-86
2023/08/03 05:39:21;339113.00;1.13;585.15;71668.00;0.24;124.64;;;;;19.90;1.00;;;;;;2263974;61;983;-90
2023/08/03 05:41:48;369075.00;1.23;636.65;77600.00;0.26;134.89;;;;;20.00;1.00;;;;;;2302746;40;3727;-87
2023/08/03 05:44:18;227352.00;0.76;392.99;68796.00;0.23;119.68;;;;;20.60;1.00;;;;;;2267886;61;1368;-89
2023/08/03 05:46:46;319549.00;1.07;551.52;87931.00;0.29;152.73;;;;;21.90;1.00;;;;;;2267925;61;942;-88
2023/08/03 05:51:43;753341.00;2.51;1299.87;0.00;0.00;0.62;;;;;23.70;1.00;;;;;;2265320;61;1377;-88
2023/08/03 05:59:21;1232208.00;4.11;2148.56;69478.00;0.23;120.86;;;;;25.10;1.00;;;;;;2261773;61;1436;-87
2023/08/03 06:06:48;511785.00;1.71;882.12;60977.00;0.20;106.17;;;;;25.80;1.00;;;;;;2390959;40;3477;-87
2023/08/03 06:09:15;221964.00;0.74;383.72;0.00;0.00;0.62;;;;;26.00;1.00;;;;;;2268489;61;1910;-88
2023/08/03 06:11:46;313305.00;1.04;540.79;33747.00;0.11;59.07;;;;;27.20;1.00;;;;;;2268588;61;1589;-89
2023/08/03 06:19:13;549692.00;1.83;947.43;0.00;0.00;0.62;;;;;27.30;1.00;;;;;;2320712;40;3523;-88
2023/08/03 06:21:41;32084.00;0.11;56.19;0.00;0.00;0.62;;;;;27.20;1.00;;;;;;2268748;61;1509;-86
2023/08/03 06:31:37;1235770.00;4.12;2155.03;38242.00;0.13;66.85;;;;;26.90;1.00;;;;;;2312709;56;3624;-87
2023/08/03 06:34:04;399183.00;1.33;688.40;0.00;0.00;0.62;;;;;26.90;1.00;;;;;;2269129;61;1600;-86
2023/08/03 06:39:07;1702389.00;5.67;3030.07;0.00;0.00;0.62;;;;;26.20;1.00;;;;;;820344;40;3524;-89
2023/08/03 07:09:02;1057821.00;3.53;1835.15;0.00;0.00;0.62;;;;;29.40;1.00;;;;;;2302140;40;3492;-89
2023/08/03 07:11:31;794087.00;2.65;1370.81;51624.00;0.17;89.99;;;;;30.20;1.00;;;;;;2305765;40;3750;-89
2023/08/03 07:19:02;1174977.00;3.92;2045.04;0.00;0.00;0.62;;;;;30.10;1.00;;;;;;2265625;61;1416;-89
2023/08/03 08:26:35;1681265.00;5.60;2989.08;113120.00;0.38;196.21;;;;;23.60;1.00;;;;;;2318237;55;3625;-88
2023/08/03 08:38:58;1448586.00;4.83;2546.74;120402.00;0.40;208.78;;;;;22.80;1.00;;;;;;2266312;61;1384;-89
2023/08/03 08:41:25;932515.00;3.11;1613.30;60614.00;0.20;105.54;;;;;23.30;1.00;;;;;;2264942;61;804;-89
2023/08/03 08:48:54;1378930.00;4.60;2417.30;44887.00;0.15;78.34;;;;;23.80;1.00;;;;;;2368993;40;3622;-88
2023/08/03 08:58:53;2262555.00;7.54;4178.11;5686.00;0.02;10.47;;;;;22.10;1.00;;;;;;820287;56;3773;-87
2023/08/03 09:31:30;1510496.00;5.03;2662.89;60452.00;0.20;105.26;;;;;22.50;1.00;;;;;;2266435;61;1953;-90
2023/08/03 09:36:27;1212040.00;4.04;2112.00;0.00;0.00;0.62;;;;;23.10;1.00;;;;;;2266641;61;1180;-89
2023/08/03 09:41:34;865301.00;2.88;1495.26;0.00;0.00;0.62;;;;;22.70;1.00;;;;;;2266798;61;1294;-90
2023/08/03 09:49:02;244645.00;0.82;422.74;0.00;0.00;0.62;;;;;23.30;1.00;;;;;;2266295;61;1284;-90
2023/08/03 09:56:33;685904.00;2.29;1182.80;0.00;0.00;0.62;;;;;23.50;1.00;;;;;;2266345;61;1325;-89
2023/08/03 09:59:04;145088.00;0.48;251.34;0.00;0.00;0.62;;;;;23.30;1.00;;;;;;2264790;61;1227;-90
2023/08/03 10:01:33;45673.00;0.15;79.70;0.00;0.00;0.62;;;;;23.00;1.00;;;;;;2264819;61;1102;-90
2023/08/03 10:04:06;243013.00;0.81;419.93;0.00;0.00;0.62;;;;;22.70;1.00;;;;;;2264761;61;1340;-91
2023/08/03 10:06:38;444098.00;1.48;765.63;29419.00;0.10;51.58;;;;;22.70;1.00;;;;;;2264732;61;1712;-89
2023/08/03 10:09:07;128964.00;0.43;223.54;0.00;0.00;0.62;;;;;23.10;1.00;;;;;;2264695;61;1673;-91
2023/08/03 10:14:08;756461.00;2.52;1305.29;0.00;0.00;0.62;;;;;23.70;1.00;;;;;;2266436;61;1314;-90
2023/08/03 10:16:37;110278.00;0.37;191.31;0.00;0.00;0.62;;;;;24.00;1.00;;;;;;2273635;55;3772;-89
2023/08/03 10:31:55;1698522.00;5.66;3022.55;146064.00;0.49;253.02;;;;;24.70;1.00;;;;;;2285193;55;3630;-89
2023/08/03 10:36:53;912239.00;3.04;1577.63;0.00;0.00;0.62;;;;;23.70;1.00;;;;;;2300316;40;3568;-87
2023/08/03 10:54:22;2050972.00;6.84;3729.52;139028.00;0.46;240.90;;;;;23.10;1.00;;;;;;2262741;61;1362;-89
2023/08/03 10:59:18;1372068.00;4.57;2404.62;82870.00;0.28;143.99;;;;;23.80;1.00;;;;;;2272292;55;3675;-88
2023/08/03 11:01:45;770100.00;2.57;1329.03;151209.00;0.50;261.89;;;;;24.50;1.00;;;;;;2268507;61;963;-89
2023/08/03 11:04:15;501066.00;1.67;863.66;81189.00;0.27;141.09;;;;;24.50;1.00;;;;;;2278402;55;3845;-86
2023/08/03 11:16:45;1233336.00;4.11;2150.61;68083.00;0.23;118.45;;;;;23.70;1.00;;;;;;1970791;56;3493;-88
2023/08/03 11:46:37;465902.00;1.55;803.14;78166.00;0.26;135.87;;;;;24.20;1.00;;;;;;1975238;56;2409;-87
2023/08/03 11:49:04;155033.00;0.52;268.48;0.00;0.00;0.62;;;;;24.50;1.00;;;;;;2271743;40;3758;-88
2023/08/03 11:51:32;117637112.00;392.12;65942284.00;117447016.00;391.49;65622836.00;;;;;25.40;1.00;;;;;;2273706;40;3463;-86
2023/08/03 11:56:27;595428.00;1.98;1026.33;0.00;0.00;0.62;;;;;24.70;1.00;;;;;;2262217;61;1501;-87
2023/08/03 11:58:53;203618.00;0.68;352.15;0.00;0.00;0.62;;;;;24.70;1.00;;;;;;2301194;40;3761;-88
2023/08/03 12:01:26;241443.00;0.80;417.23;69009.00;0.23;120.05;;;;;25.00;1.00;;;;;;2315861;56;3844;-88
2023/08/03 12:16:19;886694.00;2.96;1532.76;0.00;0.00;0.62;;;;;24.70;1.00;;;;;;1584010;55;3640;-87
2023/08/03 12:23:45;1305070.00;4.35;2281.39;0.00;0.00;0.62;;;;;24.40;1.00;;;;;;1568877;56;3618;-86
2023/08/03 12:26:12;299817.00;1.00;517.61;35428.00;0.12;61.98;;;;;24.50;1.00;;;;;;2268242;61;1721;-88
2023/08/03 12:36:12;984809.00;3.28;1705.59;0.00;0.00;0.62;;;;;24.90;1.00;;;;;;1569095;40;3441;-89
2023/08/03 12:38:39;172247.00;0.57;298.14;5550.00;0.02;10.24;;;;;25.40;1.00;;;;;;2281078;40;3625;-87
2023/08/03 12:51:02;1384539.00;4.62;2427.68;23059.00;0.08;40.57;;;;;25.50;1.00;;;;;;2265601;61;1970;-88
2023/08/03 12:56:06;1850994.00;6.17;3322.72;152651.00;0.51;264.38;;;;;26.10;1.00;;;;;;2325629;41;3471;-89
2023/08/03 12:58:33;798045.00;2.66;1377.71;55280.00;0.18;96.32;;;;;25.70;1.00;;;;;;2319815;40;3691;-86
2023/08/03 13:03:36;1762992.00;5.88;3148.48;58220.00;0.19;101.40;;;;;25.70;1.00;;;;;;2276816;40;3531;-87
2023/08/03 13:08:31;1322400.00;4.41;2313.16;27855.00;0.09;48.87;;;;;25.60;1.00;;;;;;1969859;41;3401;-87
2023/08/03 13:10:59;778944.00;2.60;1344.43;74034.00;0.25;128.73;;;;;25.90;1.00;;;;;;2369318;55;3813;-86
2023/08/03 13:13:27;1184120.00;3.95;2061.54;143683.00;0.48;248.92;;;;;25.60;1.00;;;;;;2267923;61;1398;-88
2023/08/03 13:28:16;1805794.00;6.02;3232.88;92798.00;0.31;161.14;;;;;26.20;1.00;;;;;;2291521;40;3657;-88
2023/08/03 13:30:45;547038.00;1.82;942.85;68963.00;0.23;119.97;;;;;26.60;1.00;;;;;;2285358;55;3829;-89
2023/08/03 13:45:37;1396046.00;4.65;2448.99;59485.00;0.20;103.59;;;;;26.00;1.00;;;;;;2015973;40;3591;-86
2023/08/03 13:48:06;165755.00;0.55;286.95;0.00;0.00;0.62;;;;;26.30;1.00;;;;;;2324076;55;3772;-87
2023/08/03 13:58:05;1242371.00;4.14;2167.02;0.00;0.00;0.62;;;;;26.40;1.00;;;;;;814293;56;3646;-89
2023/08/03 14:10:35;1157816.00;3.86;2014.13;0.00;0.00;0.62;;;;;26.60;1.00;;;;;;2338930;40;3510;-88
2023/08/03 14:15:40;918437.00;3.06;1588.52;0.00;0.00;0.62;;;;;25.80;1.00;;;;;;2266078;61;1312;-89
2023/08/03 14:18:07;268787.00;0.90;464.26;0.00;0.00;0.62;;;;;26.00;1.00;;;;;;2263902;61;1629;-87
2023/08/03 14:20:36;456197.00;1.52;786.44;0.00;0.00;0.62;;;;;26.50;1.00;;;;;;2281690;56;3827;-88
2023/08/03 14:23:03;150243.00;0.50;260.23;0.00;0.00;0.62;;;;;25.60;1.00;;;;;;2278792;55;3810;-88
2023/08/03 14:33:05;797733.00;2.66;1377.17;0.00;0.00;0.62;;;;;25.80;1.00;;;;;;2290747;56;3623;-87
2023/08/03 14:38:00;620567.00;2.07;1069.75;0.00;0.00;0.62;;;;;26.80;1.00;;;;;;2276099;55;3664;-87
2023/08/03 14:40:27;178875.00;0.60;309.55;0.00;0.00;0.62;;;;;26.60;1.00;;;;;;2272096;40;3614;-85
2023/08/03 14:42:54;252563.00;0.84;436.36;0.00;0.00;0.62;;;;;26.30;1.00;;;;;;2318514;56;3769;-87
2023/08/03 14:45:23;232126.00;0.77;401.21;0.00;0.00;0.62;;;;;26.00;1.00;;;;;;2266552;56;3817;-85
2023/08/03 14:47:51;135431.00;0.45;234.69;0.00;0.00;0.62;;;;;25.80;1.00;;;;;;2268455;61;1669;-85
2023/08/03 14:55:19;852464.00;2.84;1472.78;0.00;0.00;0.62;;;;;25.90;1.00;;;;;;1959740;40;3475;-85
2023/08/03 14:57:47;162237.00;0.54;280.89;0.00;0.00;0.62;;;;;25.90;1.00;;;;;;2271333;55;3815;-88
2023/08/03 15:07:46;1264024.00;4.21;2206.41;63142.00;0.21;109.91;;;;;26.20;1.00;;;;;;2338772;55;3672;-88
2023/08/03 15:10:13;68253.00;0.23;118.74;0.00;0.00;0.62;;;;;25.40;1.00;;;;;;2278834;40;3623;-87
2023/08/03 15:12:43;185513.00;0.62;320.98;0.00;0.00;0.62;;;;;25.50;1.00;;;;;;2268451;61;1382;-87
2023/08/03 15:17:40;1363511.00;4.55;2388.82;56928.00;0.19;99.17;;;;;25.60;1.00;;;;;;2269706;61;1336;-84
2023/08/03 15:22:36;1936553.00;6.46;3494.85;24838.00;0.08;43.65;;;;;25.70;1.00;;;;;;2265933;61;1408;-87
2023/08/03 15:25:04;1022530.00;3.41;1772.42;90852.00;0.30;157.78;;;;;25.80;1.00;;;;;;2264474;61;978;-88
2023/08/03 15:27:32;399904.00;1.33;689.64;50359.00;0.17;87.81;;;;;25.80;1.00;;;;;;2264407;61;966;-89
2023/08/03 15:30:01;521056.00;1.74;898.08;127160.00;0.42;220.43;;;;;26.10;1.00;;;;;;2264175;61;1437;-86
2023/08/03 15:35:02;587999.00;1.96;1013.50;0.00;0.00;0.62;;;;;25.60;1.00;;;;;;2265960;61;1542;-87
2023/08/03 15:37:29;60659.00;0.20;105.62;0.00;0.00;0.62;;;;;25.60;1.00;;;;;;2264394;61;1108;-88
2023/08/03 15:39:56;172056.00;0.57;297.81;0.00;0.00;0.62;;;;;25.60;1.00;;;;;;2264364;61;959;-88
2023/08/03 15:42:23;110200.00;0.37;191.18;0.00;0.00;0.62;;;;;25.60;1.00;;;;;;2264235;61;1266;-88
2023/08/03 15:47:21;458169.00;1.53;789.83;0.00;0.00;0.62;;;;;25.70;1.00;;;;;;2266221;61;1426;-88
2023/08/03 15:49:48;180620.00;0.60;312.56;0.00;0.00;0.62;;;;;25.60;1.00;;;;;;2264442;61;1420;-87
2023/08/03 15:54:42;661454.00;2.20;1140.46;0.00;0.00;0.62;;;;;25.40;1.00;;;;;;2265893;61;1413;-88
2023/08/03 15:57:11;224804.00;0.75;388.61;0.00;0.00;0.62;;;;;25.10;1.00;;;;;;2281672;40;3631;-88
2023/08/03 15:59:39;66666.00;0.22;116.00;0.00;0.00;0.62;;;;;24.80;1.00;;;;;;2268365;61;1185;-88
2023/08/03 16:07:04;1094631.00;3.65;1900.82;0.00;0.00;0.62;;;;;25.40;1.00;;;;;;2266211;61;1167;-88
2023/08/03 16:21:57;761295.00;2.54;1313.70;0.00;0.00;0.62;;;;;25.10;1.00;;;;;;2274354;56;3619;-86
2023/08/03 16:34:24;536555.00;1.79;924.79;0.00;0.00;0.62;;;;;24.50;1.00;;;;;;2265713;61;1416;-86
2023/08/03 16:36:51;158125.00;0.53;273.81;0.00;0.00;0.62;;;;;24.70;1.00;;;;;;2264123;61;1060;-87
2023/08/03 16:39:19;714581.00;2.38;1232.53;13054.00;0.04;23.24;;;;;25.10;1.00;;;;;;2298783;56;3749;-88
2023/08/03 16:41:45;1303446.00;4.34;2278.41;76526.00;0.26;133.04;;;;;25.00;1.00;;;;;;2316421;40;3647;-89
2023/08/03 16:49:10;2244078.00;7.48;4138.14;191384.00;0.64;331.09;;;;;25.40;1.00;;;;;;2265510;61;1174;-89
2023/08/03 16:59:03;1990433.00;6.63;3604.70;110190.00;0.37;191.16;;;;;25.80;1.00;;;;;;2276159;55;3678;-88
2023/08/03 17:01:30;625919.00;2.09;1079.00;87466.00;0.29;151.93;;;;;25.80;1.00;;;;;;2271463;40;3653;-88
2023/08/03 17:08:58;1057612.00;3.53;1834.78;71744.00;0.24;124.77;;;;;24.70;1.00;;;;;;2266318;61;1297;-90
2023/08/03 17:18:54;1337250.00;4.46;2340.44;0.00;0.00;0.62;;;;;25.00;1.00;;;;;;1576299;40;3516;-88
2023/08/03 17:21:21;125544.00;0.42;217.64;0.00;0.00;0.62;;;;;24.70;1.00;;;;;;2357172;41;3748;-87
2023/08/03 17:28:47;961027.00;3.20;1663.57;0.00;0.00;0.62;;;;;25.10;1.00;;;;;;2265505;61;1324;-87
2023/08/03 17:31:14;191778.00;0.64;331.77;0.00;0.00;0.62;;;;;24.80;1.00;;;;;;2264003;61;1996;-88
2023/08/03 17:33:41;134051.00;0.45;232.31;0.00;0.00;0.62;;;;;25.10;1.00;;;;;;2334131;55;3770;-88
2023/08/03 17:36:12;159249.00;0.53;275.75;0.00;0.00;0.62;;;;;25.20;1.00;;;;;;2278558;55;3798;-88
2023/08/03 17:48:40;842209.00;2.81;1454.84;0.00;0.00;0.62;;;;;24.60;1.00;;;;;;2265599;61;1417;-86
2023/08/03 17:51:09;42327.00;0.14;73.91;0.00;0.00;0.62;;;;;24.60;1.00;;;;;;2263952;61;1926;-86
2023/08/03 17:53:39;264288.00;0.88;456.52;56961.00;0.19;99.22;;;;;24.80;1.00;;;;;;2264077;61;1271;-85
2023/08/03 17:56:10;1063419.00;3.54;1845.13;129202.00;0.43;223.95;;;;;24.80;1.00;;;;;;2264058;61;1154;-84
2023/08/03 17:58:38;1015021.00;3.38;1759.09;54449.00;0.18;94.88;;;;;24.80;1.00;;;;;;2264112;61;1099;-85
2023/08/03 18:01:13;623831.00;2.08;1075.39;52997.00;0.18;92.37;;;;;25.00;1.00;;;;;;2264833;61;974;-85
2023/08/03 18:03:40;953509.00;3.18;1650.30;88683.00;0.30;154.03;;;;;24.80;1.00;;;;;;2264610;61;1271;-86
2023/08/03 18:06:11;881179.00;2.94;1523.09;45362.00;0.15;79.16;;;;;24.80;1.00;;;;;;2264870;61;934;-86
2023/08/03 18:08:39;997044.00;3.32;1727.24;119154.00;0.40;206.62;;;;;24.90;1.00;;;;;;2264752;61;1076;-86
2023/08/03 18:11:06;916658.00;3.06;1585.40;85640.00;0.29;148.78;;;;;25.10;1.00;;;;;;2264701;61;1922;-86
2023/08/03 18:13:33;630131.00;2.10;1086.28;70827.00;0.24;123.19;;;;;25.20;1.00;;;;;;2264611;61;1347;-86
2023/08/03 18:16:03;193567.00;0.65;334.85;63843.00;0.21;111.12;;;;;25.30;1.00;;;;;;2264727;61;1077;-87
2023/08/03 18:18:33;206339.00;0.69;356.83;67057.00;0.22;116.67;;;;;25.20;1.00;;;;;;2264531;61;959;-85
2023/08/03 18:20:59;185548.00;0.62;321.04;65392.00;0.22;113.80;;;;;25.10;1.00;;;;;;2264659;61;1003;-88
2023/08/03 18:23:26;283101.00;0.94;488.87;67475.00;0.22;117.40;;;;;25.00;1.00;;;;;;2268180;61;1328;-86
2023/08/03 18:26:02;0.00;0.00;0.62;0.00;0.00;0.62;;;;;25.10;1.00;;;;;;2268668;61;1081;-85
2023/08/03 18:28:29;0.00;0.00;0.62;0.00;0.00;0.62;;;;;25.00;1.00;;;;;;2268628;61;1056;-86
2023/08/03 18:31:01;18651.00;0.06;32.93;0.00;0.00;0.62;;;;;24.90;1.00;;;;;;2268584;61;1998;-86
2023/08/03 18:33:28;0.00;0.00;0.62;0.00;0.00;0.62;;;;;24.90;1.00;;;;;;2268618;61;1371;-86
2023/08/03 18:36:00;118916.00;0.40;206.21;0.00;0.00;0.62;;;;;24.80;1.00;;;;;;2268588;61;1440;-87
2023/08/03 18:38:26;0.00;0.00;0.62;0.00;0.00;0.62;;;;;24.70;1.00;;;;;;2268586;61;1702;-86
2023/08/03 18:40:53;62678.00;0.21;109.11;0.00;0.00;0.62;;;;;24.80;1.00;;;;;;2268586;61;1119;-85
2023/08/03 18:43:21;60665.00;0.20;105.63;0.00;0.00;0.62;;;;;24.80;1.00;;;;;;2268559;61;1372;-87
2023/08/03 18:46:02;3775.00;0.01;7.16;0.00;0.00;0.62;;;;;24.70;1.00;;;;;;2268601;61;1068;-86
2023/08/03 18:48:29;70263.00;0.23;122.21;0.00;0.00;0.62;;;;;24.60;1.00;;;;;;2268288;61;1115;-91
2023/08/03 18:51:01;85131.00;0.28;147.90;0.00;0.00;0.62;;;;;24.50;1.00;;;;;;2268605;61;1919;-86
2023/08/03 18:53:28;0.00;0.00;0.62;0.00;0.00;0.62;;;;;24.60;1.00;;;;;;2268517;61;1390;-86
2023/08/03 18:56:00;244111.00;0.81;421.82;48753.00;0.16;85.03;;;;;24.50;1.00;;;;;;2268554;61;1061;-86
2023/08/03 18:58:30;52041.00;0.17;90.72;0.00;0.00;0.62;;;;;24.70;1.00;;;;;;2268546;61;1020;-86
2023/08/03 19:00:58;0.00;0.00;0.62;0.00;0.00;0.62;;;;;24.40;1.00;;;;;;2268575;61;1066;-85
2023/08/03 19:03:25;0.00;0.00;0.62;0.00;0.00;0.62;;;;;24.50;1.00;;;;;;2268442;61;1386;-85
2023/08/03 19:05:52;72222.00;0.24;125.60;7399.00;0.02;13.44;;;;;24.40;1.00;;;;;;2268485;61;1186;-86
2023/08/03 19:08:20;115926.00;0.39;201.05;0.00;0.00;0.62;;;;;24.50;1.00;;;;;;2268423;61;991;-84